MMOX/OAX METAR and TAF weather

Enter ICAO airport designator
Station Type Date Time Source
MMOX METAR 2020/01/20 01:45 UTC NOAA

MMOX 200145Z 31007KT 7SM SCT120 18/11 A3030 RMK 8/030


Station Type Date Time Source
MMOX Decoded METAR 2020/01/20 01:45 UTC NOAA

Oaxaca / Xoxocotlan, Mexico (MMOX) 16-58N 096-44W
Jan 19, 2020 - 08:45 PM EST / 2020.01.20 0145 UTC
Wind: from the NW (310 degrees) at 8 MPH (7 KT):0
Visibility: 7 mile(s):0
Sky conditions: partly cloudy
Temperature: 64 F (18 C)
Dew Point: 51 F (11 C)
Relative Humidity: 63%
Pressure (altimeter): 30.3 in. Hg (1026 hPa)
ob: MMOX 200145Z 31007KT 7SM SCT120 18/11 A3030 RMK 8/030
cycle: 2

Station Type Date Time Source
MMOX TAF 2020/01/20 06:10 UTC NOAA

TAF MMOX 200504Z 2006/2106 30005KT 6SM HZ SCT050 BKN100
FM201800 34010KT 6SM HZ SCT020 BKN100
FM210300 03005KT 6SM HZ SCT015 BKN080

Example: see airport list